sensor_id;sensor_type;location;lat;lon;timestamp;pressure;altitude;pressure_sealevel;temperature;humidity
47522;BME280;32291;52.010;4.446;2023-06-10T00:00:28;77384.16;;;-144.67;81.18
47522;BME280;32291;52.010;4.446;2023-06-10T00:01:32;77388.44;;;-144.67;81.40
47522;BME280;32291;52.010;4.446;2023-06-10T00:02:38;77388.44;;;-144.67;81.35
47522;BME280;32291;52.010;4.446;2023-06-10T00:03:40;77392.72;;;-144.67;81.16
47522;BME280;32291;52.010;4.446;2023-06-10T00:04:43;77397.00;;;-144.67;81.38
47522;BME280;32291;52.010;4.446;2023-06-10T00:05:45;77401.28;;;-144.67;81.40
47522;BME280;32291;52.010;4.446;2023-06-10T00:06:47;77390.56;;;-144.67;81.75
47522;BME280;32291;52.010;4.446;2023-06-10T00:07:53;77394.84;;;-144.67;81.47
47522;BME280;32291;52.010;4.446;2023-06-10T00:08:56;77397.00;;;-144.67;81.78
47522;BME280;32291;52.010;4.446;2023-06-10T00:09:58;77392.72;;;-144.67;81.72
47522;BME280;32291;52.010;4.446;2023-06-10T00:10:59;77394.84;;;-144.67;81.65
47522;BME280;32291;52.010;4.446;2023-06-10T00:12:06;77403.41;;;-144.67;81.68
47522;BME280;32291;52.010;4.446;2023-06-10T00:13:09;77401.28;;;-144.67;81.75
47522;BME280;32291;52.010;4.446;2023-06-10T00:14:12;77397.00;;;-144.67;81.61
47522;BME280;32291;52.010;4.446;2023-06-10T00:15:17;77401.28;;;-144.67;81.47
47522;BME280;32291;52.010;4.446;2023-06-10T00:16:19;77409.84;;;-144.67;81.41
47522;BME280;32291;52.010;4.446;2023-06-10T00:17:20;77411.97;;;-144.67;81.52
47522;BME280;32291;52.010;4.446;2023-06-10T00:18:24;77416.25;;;-144.67;81.66
47522;BME280;32291;52.010;4.446;2023-06-10T00:19:28;77422.69;;;-144.67;81.63
47522;BME280;32291;52.010;4.446;2023-06-10T00:20:34;77422.69;;;-144.67;81.81
47522;BME280;32291;52.010;4.446;2023-06-10T00:21:37;77431.25;;;-144.67;81.52
47522;BME280;32291;52.010;4.446;2023-06-10T00:22:41;77424.81;;;-144.67;82.09
47522;BME280;32291;52.010;4.446;2023-06-10T00:23:46;77426.97;;;-144.67;81.89
47522;BME280;32291;52.010;4.446;2023-06-10T00:24:55;77431.25;;;-144.67;81.97
47522;BME280;32291;52.010;4.446;2023-06-10T00:26:03;77433.38;;;-144.67;82.05
47522;BME280;32291;52.010;4.446;2023-06-10T00:27:06;77433.38;;;-144.67;81.87
47522;BME280;32291;52.010;4.446;2023-06-10T00:28:08;77441.94;;;-144.67;81.81
47522;BME280;32291;52.010;4.446;2023-06-10T00:29:10;77437.66;;;-144.67;81.72
47522;BME280;32291;52.010;4.446;2023-06-10T00:30:12;77448.38;;;-144.67;81.63
47522;BME280;32291;52.010;4.446;2023-06-10T00:31:13;77448.38;;;-144.67;81.68
47522;BME280;32291;52.010;4.446;2023-06-10T00:32:14;77446.22;;;-144.67;82.04
47522;BME280;32291;52.010;4.446;2023-06-10T00:33:16;77439.81;;;-144.67;81.86
47522;BME280;32291;52.010;4.446;2023-06-10T00:34:17;77444.09;;;-144.67;82.08
47522;BME280;32291;52.010;4.446;2023-06-10T00:35:19;77444.09;;;-144.67;81.90
47522;BME280;32291;52.010;4.446;2023-06-10T00:36:22;77454.78;;;-144.67;81.83
47522;BME280;32291;52.010;4.446;2023-06-10T00:37:23;77463.34;;;-144.67;81.76
47522;BME280;32291;52.010;4.446;2023-06-10T00:38:25;77456.94;;;-144.67;82.12
47522;BME280;32291;52.010;4.446;2023-06-10T00:39:26;77461.22;;;-144.67;82.12
47522;BME280;32291;52.010;4.446;2023-06-10T00:40:28;77467.63;;;-144.67;82.08
47522;BME280;32291;52.010;4.446;2023-06-10T00:41:29;77467.63;;;-144.67;82.20
47522;BME280;32291;52.010;4.446;2023-06-10T00:42:38;77476.19;;;-144.67;82.17
47522;BME280;32291;52.010;4.446;2023-06-10T00:43:42;77474.06;;;-144.67;82.31
47522;BME280;32291;52.010;4.446;2023-06-10T00:44:43;77482.63;;;-144.67;81.95
47522;BME280;32291;52.010;4.446;2023-06-10T00:45:45;77478.34;;;-144.67;81.96
47522;BME280;32291;52.010;4.446;2023-06-10T00:46:47;77482.63;;;-144.67;82.12
47522;BME280;32291;52.010;4.446;2023-06-10T00:47:55;77491.19;;;-144.67;82.03
47522;BME280;32291;52.010;4.446;2023-06-10T00:48:57;77489.03;;;-144.67;82.05
47522;BME280;32291;52.010;4.446;2023-06-10T00:49:59;77486.91;;;-144.67;82.36
47522;BME280;32291;52.010;4.446;2023-06-10T00:51:01;77491.19;;;-144.67;82.25
47522;BME280;32291;52.010;4.446;2023-06-10T00:52:06;77495.47;;;-144.67;82.21
47522;BME280;32291;52.010;4.446;2023-06-10T00:53:08;77499.75;;;-144.67;81.62
47522;BME280;32291;52.010;4.446;2023-06-10T00:54:10;77495.47;;;-144.67;82.00
47522;BME280;32291;52.010;4.446;2023-06-10T00:55:17;77504.03;;;-144.67;82.24
47522;BME280;32291;52.010;4.446;2023-06-10T00:56:22;77501.88;;;-144.67;82.08
47522;BME280;32291;52.010;4.446;2023-06-10T00:57:23;77501.88;;;-144.67;82.01
47522;BME280;32291;52.010;4.446;2023-06-10T00:58:25;77506.16;;;-144.67;82.32
47522;BME280;32291;52.010;4.446;2023-06-10T00:59:30;77510.44;;;-144.67;82.39
47522;BME280;32291;52.010;4.446;2023-06-10T01:00:35;77516.88;;;-144.67;82.07
47522;BME280;32291;52.010;4.446;2023-06-10T01:01:37;77516.88;;;-144.67;81.74
47522;BME280;32291;52.010;4.446;2023-06-10T01:02:39;77519.00;;;-144.67;81.68
47522;BME280;32291;52.010;4.446;2023-06-10T01:03:41;77521.16;;;-144.67;82.25
47522;BME280;32291;52.010;4.446;2023-06-10T01:04:42;77516.88;;;-144.67;82.32
47522;BME280;32291;52.010;4.446;2023-06-10T01:05:50;77521.16;;;-144.67;82.12
47522;BME280;32291;52.010;4.446;2023-06-10T01:07:25;77523.28;;;-144.67;82.21
47522;BME280;32291;52.010;4.446;2023-06-10T01:08:44;77525.44;;;-144.67;82.20
47522;BME280;32291;52.010;4.446;2023-06-10T01:09:59;77527.56;;;-144.67;82.28
47522;BME280;32291;52.010;4.446;2023-06-10T01:11:21;77529.72;;;-144.67;82.23
47522;BME280;32291;52.010;4.446;2023-06-10T01:12:44;77534.00;;;-144.67;82.08
47522;BME280;32291;52.010;4.446;2023-06-10T01:13:51;77529.72;;;-144.67;81.95
47522;BME280;32291;52.010;4.446;2023-06-10T01:14:55;77531.84;;;-144.67;82.27
47522;BME280;32291;52.010;4.446;2023-06-10T01:15:57;77534.00;;;-144.67;82.12
47522;BME280;32291;52.010;4.446;2023-06-10T01:17:06;77531.84;;;-144.67;82.22
47522;BME280;32291;52.010;4.446;2023-06-10T01:18:10;77538.28;;;-144.67;81.74
47522;BME280;32291;52.010;4.446;2023-06-10T01:19:32;77542.56;;;-144.67;82.23
47522;BME280;32291;52.010;4.446;2023-06-10T01:20:37;77544.69;;;-144.67;82.06
47522;BME280;32291;52.010;4.446;2023-06-10T01:21:47;77546.84;;;-144.67;81.96
47522;BME280;32291;52.010;4.446;2023-06-10T01:22:55;77542.56;;;-144.67;82.24
47522;BME280;32291;52.010;4.446;2023-06-10T01:23:59;77546.84;;;-144.67;82.10
47522;BME280;32291;52.010;4.446;2023-06-10T01:25:04;77551.13;;;-144.67;82.54
47522;BME280;32291;52.010;4.446;2023-06-10T01:26:11;77561.81;;;-144.67;82.40
47522;BME280;32291;52.010;4.446;2023-06-10T01:27:15;77561.81;;;-144.67;82.37
47522;BME280;32291;52.010;4.446;2023-06-10T01:29:41;77566.09;;;-144.67;82.36
47522;BME280;32291;52.010;4.446;2023-06-10T01:32:49;77572.53;;;-144.67;82.71
47522;BME280;32291;52.010;4.446;2023-06-10T01:33:55;77568.22;;;-144.67;82.57
47522;BME280;32291;52.010;4.446;2023-06-10T01:34:57;77572.53;;;-144.67;82.63
47522;BME280;32291;52.010;4.446;2023-06-10T01:36:02;77566.09;;;-144.67;82.75
47522;BME280;32291;52.010;4.446;2023-06-10T01:37:08;77574.66;;;-144.67;82.75
47522;BME280;32291;52.010;4.446;2023-06-10T01:38:14;77576.81;;;-144.67;82.54
47522;BME280;32291;52.010;4.446;2023-06-10T01:39:23;77576.81;;;-144.67;82.64
47522;BME280;32291;52.010;4.446;2023-06-10T01:40:28;77583.22;;;-144.67;82.71
47522;BME280;32291;52.010;4.446;2023-06-10T01:41:31;77578.94;;;-144.67;82.88
47522;BME280;32291;52.010;4.446;2023-06-10T01:42:33;77583.22;;;-144.67;83.01
47522;BME280;32291;52.010;4.446;2023-06-10T01:43:38;77589.66;;;-144.67;83.01
47522;BME280;32291;52.010;4.446;2023-06-10T01:44:40;77593.91;;;-144.67;83.03
47522;BME280;32291;52.010;4.446;2023-06-10T01:45:45;77585.38;;;-144.67;83.03
47522;BME280;32291;52.010;4.446;2023-06-10T01:46:47;77596.06;;;-144.67;82.77
47522;BME280;32291;52.010;4.446;2023-06-10T01:47:49;77585.38;;;-144.67;82.82
47522;BME280;32291;52.010;4.446;2023-06-10T01:48:51;77593.91;;;-144.67;82.89
47522;BME280;32291;52.010;4.446;2023-06-10T01:49:52;77589.66;;;-144.67;83.06
47522;BME280;32291;52.010;4.446;2023-06-10T01:50:54;77593.91;;;-144.67;82.70
47522;BME280;32291;52.010;4.446;2023-06-10T01:51:57;77598.19;;;-144.67;82.68
47522;BME280;32291;52.010;4.446;2023-06-10T01:53:07;77602.50;;;-144.67;82.67
47522;BME280;32291;52.010;4.446;2023-06-10T01:54:11;77600.34;;;-144.67;82.80
47522;BME280;32291;52.010;4.446;2023-06-10T01:55:15;77606.75;;;-144.67;83.23
47522;BME280;32291;52.010;4.446;2023-06-10T01:56:16;77604.63;;;-144.67;83.04
47522;BME280;32291;52.010;4.446;2023-06-10T01:57:21;77611.03;;;-144.67;83.08
47522;BME280;32291;52.010;4.446;2023-06-10T01:58:23;77611.03;;;-144.67;83.05
47522;BME280;32291;52.010;4.446;2023-06-10T01:59:24;77613.19;;;-144.67;82.94
47522;BME280;32291;52.010;4.446;2023-06-10T02:00:26;77611.03;;;-144.67;82.83
47522;BME280;32291;52.010;4.446;2023-06-10T02:01:28;77619.63;;;-144.67;83.04
47522;BME280;32291;52.010;4.446;2023-06-10T02:02:34;77619.63;;;-144.67;83.31
47522;BME280;32291;52.010;4.446;2023-06-10T02:03:38;77617.47;;;-144.67;83.43
47522;BME280;32291;52.010;4.446;2023-06-10T02:04:39;77619.63;;;-144.67;83.24
47522;BME280;32291;52.010;4.446;2023-06-10T02:05:40;77628.16;;;-144.67;83.10
47522;BME280;32291;52.010;4.446;2023-06-10T02:06:42;77623.88;;;-144.67;83.32
47522;BME280;32291;52.010;4.446;2023-06-10T02:07:43;77623.88;;;-144.67;83.28
47522;BME280;32291;52.010;4.446;2023-06-10T02:08:45;77628.16;;;-144.67;83.20
47522;BME280;32291;52.010;4.446;2023-06-10T02:09:46;77628.16;;;-144.67;83.33
47522;BME280;32291;52.010;4.446;2023-06-10T02:10:50;77630.31;;;-144.67;83.06
47522;BME280;32291;52.010;4.446;2023-06-10T02:11:52;77632.44;;;-144.67;83.13
47522;BME280;32291;52.010;4.446;2023-06-10T02:12:53;77632.44;;;-144.67;82.92
47522;BME280;32291;52.010;4.446;2023-06-10T02:13:55;77634.59;;;-144.67;83.18
47522;BME280;32291;52.010;4.446;2023-06-10T02:14:56;77634.59;;;-144.67;83.07
47522;BME280;32291;52.010;4.446;2023-06-10T02:15:58;77636.72;;;-144.67;83.18
47522;BME280;32291;52.010;4.446;2023-06-10T02:17:00;77636.72;;;-144.67;83.34
47522;BME280;32291;52.010;4.446;2023-06-10T02:18:04;77638.88;;;-144.67;83.40
47522;BME280;32291;52.010;4.446;2023-06-10T02:19:12;77641.00;;;-144.67;83.58
47522;BME280;32291;52.010;4.446;2023-06-10T02:20:14;77638.88;;;-144.67;83.18
47522;BME280;32291;52.010;4.446;2023-06-10T02:21:16;77645.28;;;-144.67;83.49
47522;BME280;32291;52.010;4.446;2023-06-10T02:22:21;77645.28;;;-144.67;83.57
47522;BME280;32291;52.010;4.446;2023-06-10T02:23:23;77645.28;;;-144.67;83.72
47522;BME280;32291;52.010;4.446;2023-06-10T02:24:25;77656.00;;;-144.67;83.62
47522;BME280;32291;52.010;4.446;2023-06-10T02:25:26;77656.00;;;-144.67;84.05
47522;BME280;32291;52.010;4.446;2023-06-10T02:26:28;77660.28;;;-144.67;83.71
47522;BME280;32291;52.010;4.446;2023-06-10T02:27:29;77660.28;;;-144.67;83.64
47522;BME280;32291;52.010;4.446;2023-06-10T02:28:34;77658.13;;;-144.67;83.75
47522;BME280;32291;52.010;4.446;2023-06-10T02:29:35;77666.69;;;-144.67;83.47
47522;BME280;32291;52.010;4.446;2023-06-10T02:30:41;77662.41;;;-144.67;83.88
47522;BME280;32291;52.010;4.446;2023-06-10T02:31:43;77664.56;;;-144.67;84.07
47522;BME280;32291;52.010;4.446;2023-06-10T02:32:45;77662.41;;;-144.67;83.95
47522;BME280;32291;52.010;4.446;2023-06-10T02:33:49;77664.56;;;-144.67;83.83
47522;BME280;32291;52.010;4.446;2023-06-10T02:34:53;77673.13;;;-144.67;84.00
47522;BME280;32291;52.010;4.446;2023-06-10T02:35:55;77668.84;;;-144.67;83.93
47522;BME280;32291;52.010;4.446;2023-06-10T02:36:57;77675.25;;;-144.67;84.21
47522;BME280;32291;52.010;4.446;2023-06-10T02:37:58;77679.53;;;-144.67;84.09
47522;BME280;32291;52.010;4.446;2023-06-10T02:39:02;77670.97;;;-144.67;84.28
47522;BME280;32291;52.010;4.446;2023-06-10T02:40:05;77679.53;;;-144.67;84.20
47522;BME280;32291;52.010;4.446;2023-06-10T02:41:07;77690.25;;;-144.67;84.07
47522;BME280;32291;52.010;4.446;2023-06-10T02:42:09;77683.81;;;-144.67;84.18
47522;BME280;32291;52.010;4.446;2023-06-10T02:43:11;77683.81;;;-144.67;84.24
47522;BME280;32291;52.010;4.446;2023-06-10T02:44:13;77688.09;;;-144.67;84.14
47522;BME280;32291;52.010;4.446;2023-06-10T02:45:17;77690.25;;;-144.67;84.25
47522;BME280;32291;52.010;4.446;2023-06-10T02:46:19;77692.38;;;-144.67;83.91
47522;BME280;32291;52.010;4.446;2023-06-10T02:47:23;77694.53;;;-144.67;84.09
47522;BME280;32291;52.010;4.446;2023-06-10T02:48:24;77692.38;;;-144.67;84.20
47522;BME280;32291;52.010;4.446;2023-06-10T02:49:26;77696.66;;;-144.67;84.03
47522;BME280;32291;52.010;4.446;2023-06-10T02:50:33;77696.66;;;-144.67;83.99
47522;BME280;32291;52.010;4.446;2023-06-10T02:51:39;77696.66;;;-144.67;84.07
47522;BME280;32291;52.010;4.446;2023-06-10T02:52:43;77694.53;;;-144.67;84.18
47522;BME280;32291;52.010;4.446;2023-06-10T02:53:45;77700.94;;;-144.67;84.10
47522;BME280;32291;52.010;4.446;2023-06-10T02:54:51;77709.50;;;-144.67;84.11
47522;BME280;32291;52.010;4.446;2023-06-10T02:55:52;77705.22;;;-144.67;84.33
47522;BME280;32291;52.010;4.446;2023-06-10T02:56:54;77705.22;;;-144.67;84.16
47522;BME280;32291;52.010;4.446;2023-06-10T02:57:57;77709.50;;;-144.67;84.07
47522;BME280;32291;52.010;4.446;2023-06-10T02:58:58;77709.50;;;-144.67;84.19
47522;BME280;32291;52.010;4.446;2023-06-10T03:00:00;77707.38;;;-144.67;84.13
47522;BME280;32291;52.010;4.446;2023-06-10T03:01:03;77713.78;;;-144.67;84.10
47522;BME280;32291;52.010;4.446;2023-06-10T03:02:06;77715.94;;;-144.67;84.16
47522;BME280;32291;52.010;4.446;2023-06-10T03:03:07;77715.94;;;-144.67;84.16
47522;BME280;32291;52.010;4.446;2023-06-10T03:04:09;77718.06;;;-144.67;84.41
47522;BME280;32291;52.010;4.446;2023-06-10T03:05:11;77718.06;;;-144.67;84.65
47522;BME280;32291;52.010;4.446;2023-06-10T03:06:14;77720.22;;;-144.67;84.68
47522;BME280;32291;52.010;4.446;2023-06-10T03:07:15;77720.22;;;-144.67;84.71
47522;BME280;32291;52.010;4.446;2023-06-10T03:08:17;77720.22;;;-144.67;84.65
47522;BME280;32291;52.010;4.446;2023-06-10T03:09:21;77724.50;;;-144.67;84.55
47522;BME280;32291;52.010;4.446;2023-06-10T03:10:22;77726.63;;;-144.67;84.68
47522;BME280;32291;52.010;4.446;2023-06-10T03:11:24;77718.06;;;-144.67;84.76
47522;BME280;32291;52.010;4.446;2023-06-10T03:12:27;77724.50;;;-144.67;84.31
47522;BME280;32291;52.010;4.446;2023-06-10T03:13:28;77722.34;;;-144.67;84.70
47522;BME280;32291;52.010;4.446;2023-06-10T03:14:29;77724.50;;;-144.67;84.68
47522;BME280;32291;52.010;4.446;2023-06-10T03:15:31;77726.63;;;-144.67;84.67
47522;BME280;32291;52.010;4.446;2023-06-10T03:16:34;77730.91;;;-144.67;84.69
47522;BME280;32291;52.010;4.446;2023-06-10T03:17:38;77733.06;;;-144.67;84.62
47522;BME280;32291;52.010;4.446;2023-06-10T03:18:39;77737.34;;;-144.67;84.55
47522;BME280;32291;52.010;4.446;2023-06-10T03:19:41;77735.19;;;-144.67;84.64
47522;BME280;32291;52.010;4.446;2023-06-10T03:20:44;77739.47;;;-144.67;84.58
47522;BME280;32291;52.010;4.446;2023-06-10T03:21:57;77745.91;;;-144.67;84.48
47522;BME280;32291;52.010;4.446;2023-06-10T03:23:02;77752.31;;;-144.67;84.86
47522;BME280;32291;52.010;4.446;2023-06-10T03:24:04;77748.03;;;-144.67;84.76
47522;BME280;32291;52.010;4.446;2023-06-10T03:25:07;77748.03;;;-144.67;84.98
47522;BME280;32291;52.010;4.446;2023-06-10T03:26:11;77756.59;;;-144.67;85.00
47522;BME280;32291;52.010;4.446;2023-06-10T03:27:13;77754.47;;;-144.67;85.10
47522;BME280;32291;52.010;4.446;2023-06-10T03:28:16;77754.47;;;-144.67;84.94
47522;BME280;32291;52.010;4.446;2023-06-10T03:29:17;77756.59;;;-144.67;85.09
47522;BME280;32291;52.010;4.446;2023-06-10T03:30:24;77760.88;;;-144.67;85.15
47522;BME280;32291;52.010;4.446;2023-06-10T03:31:28;77765.16;;;-144.67;84.98
47522;BME280;32291;52.010;4.446;2023-06-10T03:32:30;77760.88;;;-144.67;85.11
47522;BME280;32291;52.010;4.446;2023-06-10T03:33:32;77765.16;;;-144.67;85.04
47522;BME280;32291;52.010;4.446;2023-06-10T03:34:34;77767.31;;;-144.67;85.06
47522;BME280;32291;52.010;4.446;2023-06-10T03:35:38;77769.44;;;-144.67;85.10
47522;BME280;32291;52.010;4.446;2023-06-10T03:36:39;77773.72;;;-144.67;85.22
47522;BME280;32291;52.010;4.446;2023-06-10T03:37:43;77773.72;;;-144.67;85.11
47522;BME280;32291;52.010;4.446;2023-06-10T03:38:45;77780.16;;;-144.67;84.99
47522;BME280;32291;52.010;4.446;2023-06-10T03:39:46;77773.72;;;-144.67;85.09
47522;BME280;32291;52.010;4.446;2023-06-10T03:40:55;77782.28;;;-144.67;85.28
47522;BME280;32291;52.010;4.446;2023-06-10T03:41:57;77773.72;;;-144.67;85.04
47522;BME280;32291;52.010;4.446;2023-06-10T03:42:59;77775.88;;;-144.67;85.11
47522;BME280;32291;52.010;4.446;2023-06-10T03:44:01;77778.00;;;-144.67;84.80
47522;BME280;32291;52.010;4.446;2023-06-10T03:45:11;77773.72;;;-144.67;84.93
47522;BME280;32291;52.010;4.446;2023-06-10T03:46:12;77782.28;;;-144.67;84.89
47522;BME280;32291;52.010;4.446;2023-06-10T03:47:14;77786.56;;;-144.67;84.89
47522;BME280;32291;52.010;4.446;2023-06-10T03:48:15;77790.84;;;-144.67;84.78
47522;BME280;32291;52.010;4.446;2023-06-10T03:49:17;77782.28;;;-144.67;84.70
47522;BME280;32291;52.010;4.446;2023-06-10T03:50:24;77782.28;;;-144.67;84.43
47522;BME280;32291;52.010;4.446;2023-06-10T03:51:27;77788.72;;;-144.67;84.55
47522;BME280;32291;52.010;4.446;2023-06-10T03:52:34;77782.28;;;-144.67;84.72
47522;BME280;32291;52.010;4.446;2023-06-10T03:53:38;77782.28;;;-144.67;85.04
47522;BME280;32291;52.010;4.446;2023-06-10T03:54:39;77784.44;;;-144.67;84.62
47522;BME280;32291;52.010;4.446;2023-06-10T03:55:41;77786.56;;;-144.67;84.46
47522;BME280;32291;52.010;4.446;2023-06-10T03:56:42;77786.56;;;-144.67;84.27
47522;BME280;32291;52.010;4.446;2023-06-10T03:57:44;77780.16;;;-144.67;84.29
47522;BME280;32291;52.010;4.446;2023-06-10T03:58:46;77780.16;;;-144.67;84.30
47522;BME280;32291;52.010;4.446;2023-06-10T03:59:47;77775.88;;;-144.67;84.36
47522;BME280;32291;52.010;4.446;2023-06-10T04:00:52;77782.28;;;-144.67;84.30
47522;BME280;32291;52.010;4.446;2023-06-10T04:01:54;77771.59;;;-144.67;84.24
47522;BME280;32291;52.010;4.446;2023-06-10T04:02:55;77780.16;;;-144.67;84.02
47522;BME280;32291;52.010;4.446;2023-06-10T04:03:59;77784.44;;;-144.67;83.98
47522;BME280;32291;52.010;4.446;2023-06-10T04:05:03;77782.28;;;-144.67;84.20
47522;BME280;32291;52.010;4.446;2023-06-10T04:06:07;77780.16;;;-144.67;84.08
47522;BME280;32291;52.010;4.446;2023-06-10T04:07:09;77786.56;;;-144.67;84.10
47522;BME280;32291;52.010;4.446;2023-06-10T04:08:10;77784.44;;;-144.67;84.33
47522;BME280;32291;52.010;4.446;2023-06-10T04:09:12;77782.28;;;-144.67;84.34
47522;BME280;32291;52.010;4.446;2023-06-10T04:10:14;77778.00;;;-144.67;84.60
47522;BME280;32291;52.010;4.446;2023-06-10T04:11:16;77780.16;;;-144.67;84.43
47522;BME280;32291;52.010;4.446;2023-06-10T04:12:21;77782.28;;;-144.67;84.66
47522;BME280;32291;52.010;4.446;2023-06-10T04:13:23;77782.28;;;-144.67;84.50
47522;BME280;32291;52.010;4.446;2023-06-10T04:14:24;77778.00;;;-144.67;84.79
47522;BME280;32291;52.010;4.446;2023-06-10T04:15:26;77780.16;;;-144.67;84.72
47522;BME280;32291;52.010;4.446;2023-06-10T04:16:28;77769.44;;;-144.67;85.05
47522;BME280;32291;52.010;4.446;2023-06-10T04:17:29;77778.00;;;-144.67;84.94
47522;BME280;32291;52.010;4.446;2023-06-10T04:18:34;77778.00;;;-144.67;84.82
47522;BME280;32291;52.010;4.446;2023-06-10T04:19:35;77780.16;;;-144.67;84.60
47522;BME280;32291;52.010;4.446;2023-06-10T04:20:37;77775.88;;;-144.67;84.85
47522;BME280;32291;52.010;4.446;2023-06-10T04:21:39;77769.44;;;-144.67;84.88
47522;BME280;32291;52.010;4.446;2023-06-10T04:22:43;77775.88;;;-144.67;85.04
47522;BME280;32291;52.010;4.446;2023-06-10T04:23:45;77778.00;;;-144.67;84.92
47522;BME280;32291;52.010;4.446;2023-06-10T04:24:47;77775.88;;;-144.67;84.84
47522;BME280;32291;52.010;4.446;2023-06-10T04:25:50;77769.44;;;-144.67;84.82
47522;BME280;32291;52.010;4.446;2023-06-10T04:26:54;77771.59;;;-144.67;84.84
47522;BME280;32291;52.010;4.446;2023-06-10T04:27:56;77773.72;;;-144.67;84.95
47522;BME280;32291;52.010;4.446;2023-06-10T04:28:57;77773.72;;;-144.67;84.94
47522;BME280;32291;52.010;4.446;2023-06-10T04:29:59;77765.16;;;-144.67;84.96
47522;BME280;32291;52.010;4.446;2023-06-10T04:31:00;77773.72;;;-144.67;84.85
47522;BME280;32291;52.010;4.446;2023-06-10T04:32:07;77775.88;;;-144.67;84.84
47522;BME280;32291;52.010;4.446;2023-06-10T04:33:09;77778.00;;;-144.67;84.72
47522;BME280;32291;52.010;4.446;2023-06-10T04:34:10;77765.16;;;-144.67;85.03
47522;BME280;32291;52.010;4.446;2023-06-10T04:35:12;77765.16;;;-144.67;85.17
47522;BME280;32291;52.010;4.446;2023-06-10T04:36:15;77763.03;;;-144.67;85.06
47522;BME280;32291;52.010;4.446;2023-06-10T04:37:21;77765.16;;;-144.67;85.16
47522;BME280;32291;52.010;4.446;2023-06-10T04:38:22;77769.44;;;-144.67;84.99
47522;BME280;32291;52.010;4.446;2023-06-10T04:39:24;77765.16;;;-144.67;84.87
47522;BME280;32291;52.010;4.446;2023-06-10T04:40:25;77758.75;;;-144.67;85.04
47522;BME280;32291;52.010;4.446;2023-06-10T04:41:27;77765.16;;;-144.67;85.03
47522;BME280;32291;52.010;4.446;2023-06-10T04:42:28;77760.88;;;-144.67;84.99
47522;BME280;32291;52.010;4.446;2023-06-10T04:43:30;77756.59;;;-144.67;85.15
47522;BME280;32291;52.010;4.446;2023-06-10T04:44:34;77754.47;;;-144.67;85.30
47522;BME280;32291;52.010;4.446;2023-06-10T04:45:36;77756.59;;;-144.67;85.10
47522;BME280;32291;52.010;4.446;2023-06-10T04:46:38;77750.19;;;-144.67;85.36
47522;BME280;32291;52.010;4.446;2023-06-10T04:47:39;77756.59;;;-144.67;85.12
47522;BME280;32291;52.010;4.446;2023-06-10T04:48:41;77754.47;;;-144.67;85.01
47522;BME280;32291;52.010;4.446;2023-06-10T04:49:43;77748.03;;;-144.67;84.98
47522;BME280;32291;52.010;4.446;2023-06-10T04:50:51;77743.75;;;-144.67;84.67
47522;BME280;32291;52.010;4.446;2023-06-10T04:51:52;77743.75;;;-144.67;84.52
47522;BME280;32291;52.010;4.446;2023-06-10T04:52:54;77741.63;;;-144.67;84.51
47522;BME280;32291;52.010;4.446;2023-06-10T04:53:58;77741.63;;;-144.67;84.48
47522;BME280;32291;52.010;4.446;2023-06-10T04:55:04;77737.34;;;-144.67;84.35
47522;BME280;32291;52.010;4.446;2023-06-10T04:56:10;77735.19;;;-144.67;84.33
47522;BME280;32291;52.010;4.446;2023-06-10T04:57:11;77735.19;;;-144.67;84.29
47522;BME280;32291;52.010;4.446;2023-06-10T04:58:15;77724.50;;;-144.67;84.33
47522;BME280;32291;52.010;4.446;2023-06-10T04:59:16;77718.06;;;-144.67;84.91
47522;BME280;32291;52.010;4.446;2023-06-10T05:00:18;77718.06;;;-144.67;85.05
47522;BME280;32291;52.010;4.446;2023-06-10T05:01:21;77722.34;;;-144.67;84.46
47522;BME280;32291;52.010;4.446;2023-06-10T05:02:22;77726.63;;;-144.67;84.34
47522;BME280;32291;52.010;4.446;2023-06-10T05:03:24;77722.34;;;-144.67;84.10
47522;BME280;32291;52.010;4.446;2023-06-10T05:04:26;77713.78;;;-144.67;84.33
47522;BME280;32291;52.010;4.446;2023-06-10T05:05:28;77715.94;;;-144.67;84.18
47522;BME280;32291;52.010;4.446;2023-06-10T05:06:30;77709.50;;;-144.67;84.25
47522;BME280;32291;52.010;4.446;2023-06-10T05:07:32;77720.22;;;-144.67;84.29
47522;BME280;32291;52.010;4.446;2023-06-10T05:08:35;77711.66;;;-144.67;84.24
47522;BME280;32291;52.010;4.446;2023-06-10T05:09:40;77713.78;;;-144.67;84.07
47522;BME280;32291;52.010;4.446;2023-06-10T05:10:41;77709.50;;;-144.67;84.06
47522;BME280;32291;52.010;4.446;2023-06-10T05:11:43;77709.50;;;-144.67;84.14
47522;BME280;32291;52.010;4.446;2023-06-10T05:12:46;77698.81;;;-144.67;84.41
47522;BME280;32291;52.010;4.446;2023-06-10T05:13:47;77703.09;;;-144.67;84.16
47522;BME280;32291;52.010;4.446;2023-06-10T05:14:53;77694.53;;;-144.67;84.19
47522;BME280;32291;52.010;4.446;2023-06-10T05:15:54;77683.81;;;-144.67;84.37
47522;BME280;32291;52.010;4.446;2023-06-10T05:16:56;77688.09;;;-144.67;84.03
47522;BME280;32291;52.010;4.446;2023-06-10T05:17:57;77688.09;;;-144.67;84.06
47522;BME280;32291;52.010;4.446;2023-06-10T05:18:59;77683.81;;;-144.67;83.66
47522;BME280;32291;52.010;4.446;2023-06-10T05:20:02;77681.69;;;-144.67;83.61
47522;BME280;32291;52.010;4.446;2023-06-10T05:21:04;77675.25;;;-144.67;83.82
47522;BME280;32291;52.010;4.446;2023-06-10T05:22:07;77670.97;;;-144.67;83.67
47522;BME280;32291;52.010;4.446;2023-06-10T05:23:08;77666.69;;;-144.67;83.48
47522;BME280;32291;52.010;4.446;2023-06-10T05:24:10;77666.69;;;-144.67;83.45
47522;BME280;32291;52.010;4.446;2023-06-10T05:25:12;77666.69;;;-144.67;83.27
47522;BME280;32291;52.010;4.446;2023-06-10T05:26:13;77658.13;;;-144.67;83.63
47522;BME280;32291;52.010;4.446;2023-06-10T05:27:15;77660.28;;;-144.67;83.45
47522;BME280;32291;52.010;4.446;2023-06-10T05:28:16;77651.72;;;-144.67;83.27
47522;BME280;32291;52.010;4.446;2023-06-10T05:29:21;77649.56;;;-144.67;83.33
47522;BME280;32291;52.010;4.446;2023-06-10T05:30:22;77647.44;;;-144.67;83.19